LFBI

Poitiers-Biard Airport

Airport
ICAO code
LFBI
IATA Code
PIS
Summary
ICAO Region
EUR
ICAO Territory
Location

, Poitou-Charentes

Serving
Poitiers
Elevation
423 ft
Coordinates
46° 35' 16" N , 0° 18' 24" E
Metar
Observation
LFBI 012230Z AUTO 01008KT 9000 FEW011 OVC040 05/04 Q1023 BECMG BKN012
Station
Poitiers
Date/Time
2022-12-01 22:30:00
Wind direction
10°
Wind speed
08 kts
Lowest cloud amount
few clouds
Temperature
5°C
Dew point
4°C
Humidity
93%
QNH
1023 hPa
Weather condition
n/a

Runways

Designator Length Width Surface Rops
3/21 2350 45 ASP Yes/Yes

Airport map

Aerial View

SKYbrary Partners:

Safety knowledge contributed by: